Time;durP1;ratioP1;P1;durP2;ratioP2;P2;SDS_P1;SDS_P2;PMS_P1;PMS_P2;Temp;Humidity;BMP_temperature;BMP_pressure;BME280_temperature;BME280_humidity;BME280_pressure;Samples;Min_cycle;Max_cycle;Signal;HPM_P1;HPM_P2
2022/03/28 00:00:32;;;;;;;2.45;2.25;;;;;;;17.33;34.72;94218.31;5028495;28;20052;-89
2022/03/28 00:02:58;;;;;;;3.67;2.30;;;;;;;17.31;34.74;94212.59;5011831;28;20266;-89
2022/03/28 00:05:24;;;;;;;2.75;2.25;;;;;;;17.32;34.53;94217.56;5028084;28;20537;-90
2022/03/28 00:07:49;;;;;;;3.42;2.80;;;;;;;17.33;34.93;94212.84;5012033;28;20041;-89
2022/03/28 00:10:15;;;;;;;3.08;2.55;;;;;;;17.34;34.71;94206.16;5011324;28;20033;-89
2022/03/28 00:12:40;;;;;;;3.25;2.40;;;;;;;17.35;34.70;94200.19;5012237;28;20056;-90
2022/03/28 00:15:06;;;;;;;3.60;2.75;;;;;;;17.30;34.58;94192.72;5008152;28;20443;-89
2022/03/28 00:17:36;;;;;;;4.63;2.75;;;;;;;17.33;34.89;94197.19;5008522;28;20034;-90
2022/03/28 00:20:05;;;;;;;3.60;2.53;;;;;;;17.30;34.78;94191.97;5025075;28;20044;-90
2022/03/28 00:22:31;;;;;;;3.78;2.40;;;;;;;17.31;34.65;94188.75;5011452;28;20059;-89
2022/03/28 00:24:56;;;;;;;4.05;2.60;;;;;;;17.31;34.83;94182.53;5028521;28;20502;-89
2022/03/28 00:27:21;;;;;;;4.03;2.90;;;;;;;17.30;34.79;94179.06;5011585;28;20037;-90
2022/03/28 00:29:47;;;;;;;4.93;2.47;;;;;;;17.33;34.75;94185.53;5027888;28;20045;-89
2022/03/28 00:32:12;;;;;;;3.85;2.75;;;;;;;17.32;34.34;94181.31;5014599;28;20032;-89
2022/03/28 00:34:38;;;;;;;3.38;2.38;;;;;;;17.31;34.50;94172.38;5015731;28;20029;-90
2022/03/28 00:37:04;;;;;;;3.15;2.58;;;;;;;17.30;34.45;94167.38;5012188;28;20042;-89
2022/03/28 00:39:29;;;;;;;4.25;2.75;;;;;;;17.32;34.62;94171.09;5012306;28;20467;-89
2022/03/28 00:41:55;;;;;;;2.72;2.28;;;;;;;17.31;34.84;94171.63;4995487;28;20026;-90
2022/03/28 00:44:20;;;;;;;3.03;2.72;;;;;;;17.31;34.77;94172.38;4995276;28;20439;-89
2022/03/28 00:46:46;;;;;;;3.58;2.75;;;;;;;17.32;34.73;94167.66;5011757;28;20029;-90
2022/03/28 00:49:11;;;;;;;3.75;3.00;;;;;;;17.28;34.53;94173.34;4994914;28;20072;-90
2022/03/28 00:51:37;;;;;;;3.05;2.60;;;;;;;17.28;34.88;94167.88;5011454;28;20068;-90
2022/03/28 00:54:03;;;;;;;4.00;2.90;;;;;;;17.28;34.55;94159.66;4995001;28;20476;-89
2022/03/28 00:56:28;;;;;;;3.63;2.67;;;;;;;17.29;34.29;94163.91;4995540;28;20139;-89
2022/03/28 00:58:54;;;;;;;3.38;2.28;;;;;;;17.30;34.66;94167.38;4995567;28;20030;-90
2022/03/28 01:01:20;;;;;;;3.45;2.38;;;;;;;17.27;34.54;94166.38;4994364;28;20329;-89
2022/03/28 01:03:46;;;;;;;3.08;2.63;;;;;;;17.26;34.82;94153.94;5011171;28;20513;-90
2022/03/28 01:06:11;;;;;;;3.80;2.65;;;;;;;17.30;34.83;94156.44;5011294;28;20419;-89
2022/03/28 01:08:37;;;;;;;3.38;2.85;;;;;;;17.28;34.85;94158.91;5010427;28;20028;-89
2022/03/28 01:11:04;;;;;;;5.65;2.70;;;;;;;17.31;34.50;94152.50;5030681;28;20045;-89
2022/03/28 01:13:31;;;;;;;3.35;2.60;;;;;;;17.29;34.70;94152.97;5030943;28;20179;-89
2022/03/28 01:15:58;;;;;;;3.17;2.50;;;;;;;17.29;34.67;94150.25;5045357;28;20128;-89
2022/03/28 01:18:23;;;;;;;3.78;3.03;;;;;;;17.27;34.52;94154.69;4994612;28;20036;-89
2022/03/28 01:20:50;;;;;;;3.92;2.92;;;;;;;17.27;34.54;94149.97;5011406;28;20241;-89
2022/03/28 01:23:15;;;;;;;3.55;2.53;;;;;;;17.25;34.61;94141.50;5035647;28;20411;-89
2022/03/28 01:25:41;;;;;;;5.80;3.03;;;;;;;17.26;34.85;94147.72;5031177;28;20026;-89
2022/03/28 01:28:07;;;;;;;2.88;2.53;;;;;;;17.25;34.83;94138.78;5014047;28;20509;-89
2022/03/28 01:30:32;;;;;;;5.03;2.80;;;;;;;17.24;34.63;94142.75;5030880;28;20025;-90
2022/03/28 01:32:58;;;;;;;4.10;2.88;;;;;;;17.26;34.52;94134.81;5030817;28;20131;-89
2022/03/28 01:35:29;;;;;;;2.85;2.22;;;;;;;17.26;34.65;94139.53;5013792;28;20051;-89
2022/03/28 01:37:54;;;;;;;4.35;3.00;;;;;;;17.25;34.58;94138.03;5012720;28;20333;-89
2022/03/28 01:40:20;;;;;;;3.60;2.80;;;;;;;17.24;34.82;94133.78;4994483;28;20397;-89
2022/03/28 01:42:48;;;;;;;4.30;3.10;;;;;;;17.23;34.40;94141.25;4993995;28;20491;-90
2022/03/28 01:45:14;;;;;;;3.78;2.90;;;;;;;17.25;34.37;94135.28;5010311;28;20025;-90
2022/03/28 01:47:40;;;;;;;3.58;2.92;;;;;;;17.23;34.89;94135.03;4994767;28;20082;-90
2022/03/28 01:50:06;;;;;;;3.05;2.45;;;;;;;17.25;34.84;94132.56;4993941;28;20025;-89
2022/03/28 01:52:31;;;;;;;3.63;2.72;;;;;;;17.26;34.46;94136.78;5010763;28;20036;-89
2022/03/28 01:54:57;;;;;;;2.95;2.65;;;;;;;17.24;34.60;94133.78;4994309;28;20640;-89
2022/03/28 01:57:22;;;;;;;3.17;2.67;;;;;;;17.22;35.06;94128.81;5010580;28;20048;-89
2022/03/28 01:59:48;;;;;;;3.92;2.90;;;;;;;17.23;34.70;94127.59;5010297;28;20042;-89
2022/03/28 02:02:13;;;;;;;3.15;2.75;;;;;;;17.24;34.58;94122.88;5026026;28;20483;-89
2022/03/28 02:04:38;;;;;;;3.63;3.05;;;;;;;17.21;34.61;94121.84;4994005;28;20052;-89
2022/03/28 02:07:04;;;;;;;3.33;2.63;;;;;;;17.21;34.89;94113.66;4993365;28;20041;-90
2022/03/28 02:09:29;;;;;;;4.35;2.90;;;;;;;17.21;34.85;94113.66;4993923;28;20048;-89
2022/03/28 02:11:55;;;;;;;5.18;3.20;;;;;;;17.21;34.51;94113.66;5017496;28;20041;-89
2022/03/28 02:14:20;;;;;;;4.18;2.83;;;;;;;17.21;34.82;94110.16;5029435;28;20434;-90
2022/03/28 02:16:46;;;;;;;3.53;2.50;;;;;;;17.22;34.75;94111.66;5030133;28;20041;-90
2022/03/28 02:19:11;;;;;;;4.57;3.10;;;;;;;17.24;34.68;94111.94;5029157;28;20044;-89
2022/03/28 02:21:37;;;;;;;2.90;2.60;;;;;;;17.21;34.55;94110.16;5046489;28;20040;-90
2022/03/28 02:24:02;;;;;;;3.35;2.40;;;;;;;17.24;34.53;94098.28;5014182;28;20433;-89
2022/03/28 02:26:27;;;;;;;3.33;2.88;;;;;;;17.23;35.02;94107.72;4994251;28;20057;-89
2022/03/28 02:28:53;;;;;;;4.40;2.97;;;;;;;17.21;34.82;94108.19;5009900;28;20520;-90
2022/03/28 02:31:19;;;;;;;4.13;3.22;;;;;;;17.20;34.62;94109.41;4993399;28;20040;-89
2022/03/28 02:33:44;;;;;;;6.20;2.90;;;;;;;17.19;35.03;94102.47;5009791;28;20037;-89
2022/03/28 02:36:10;;;;;;;4.40;2.92;;;;;;;17.21;34.79;94091.78;4992912;28;20041;-89
2022/03/28 02:38:35;;;;;;;3.75;2.88;;;;;;;17.20;34.78;94103.97;4997222;28;20153;-89
2022/03/28 02:41:00;;;;;;;3.40;2.95;;;;;;;17.22;34.61;94098.00;5010213;28;20033;-90
2022/03/28 02:43:26;;;;;;;3.53;2.75;;;;;;;17.19;34.53;94107.19;5008819;28;20539;-89
2022/03/28 02:45:51;;;;;;;3.78;3.03;;;;;;;17.17;34.80;94102.19;5009851;28;20034;-89
2022/03/28 02:48:17;;;;;;;2.97;2.58;;;;;;;17.20;34.95;94097.75;4993015;28;20068;-89
2022/03/28 02:50:42;;;;;;;4.15;3.15;;;;;;;17.18;34.65;94100.97;4993325;28;20037;-89
2022/03/28 02:53:08;;;;;;;4.07;2.90;;;;;;;17.18;34.88;94092.75;4992508;28;20042;-89
2022/03/28 02:55:33;;;;;;;4.03;2.88;;;;;;;17.16;34.80;94091.75;4993160;28;20590;-90
2022/03/28 02:57:58;;;;;;;3.13;2.83;;;;;;;17.16;34.65;94087.03;4993018;28;20107;-89
2022/03/28 03:00:24;;;;;;;3.85;2.80;;;;;;;17.17;34.60;94096.72;4992840;28;20120;-89
2022/03/28 03:02:49;;;;;;;3.85;3.08;;;;;;;17.18;34.70;94092.75;4992774;28;20029;-89
2022/03/28 03:05:15;;;;;;;4.20;3.05;;;;;;;17.20;34.71;94090.28;4992319;28;20033;-89
2022/03/28 03:07:40;;;;;;;2.60;2.38;;;;;;;17.18;34.83;94095.50;4993176;28;20083;-90
2022/03/28 03:10:06;;;;;;;4.55;3.38;;;;;;;17.15;34.74;94093.72;5008705;28;20046;-90
2022/03/28 03:12:32;;;;;;;3.58;2.90;;;;;;;17.14;34.78;94084.78;5009046;28;20207;-89
2022/03/28 03:14:57;;;;;;;4.30;3.30;;;;;;;17.21;34.70;94080.88;5008817;28;20124;-90
2022/03/28 03:17:23;;;;;;;5.93;2.80;;;;;;;17.21;34.55;94083.59;4995148;28;20041;-90
2022/03/28 03:19:48;;;;;;;3.90;3.10;;;;;;;17.18;34.66;94075.63;5025166;28;20056;-89
2022/03/28 03:22:14;;;;;;;4.60;2.70;;;;;;;17.18;35.04;94076.38;4992649;28;20049;-89
2022/03/28 03:24:42;;;;;;;5.32;3.08;;;;;;;17.17;34.65;94076.84;5028699;28;20044;-90
2022/03/28 03:27:08;;;;;;;4.45;3.17;;;;;;;17.21;34.77;94080.88;5028770;28;20336;-90
2022/03/28 03:29:34;;;;;;;4.45;2.95;;;;;;;17.14;34.97;94071.13;5012517;28;20036;-89
2022/03/28 03:31:59;;;;;;;3.30;2.88;;;;;;;17.14;34.58;94071.13;5012157;28;20452;-90
2022/03/28 03:34:25;;;;;;;5.38;3.10;;;;;;;17.18;34.63;94076.38;5027833;28;20040;-89
2022/03/28 03:36:50;;;;;;;4.18;3.13;;;;;;;17.16;34.67;94067.16;5030572;28;20029;-89
2022/03/28 03:39:15;;;;;;;6.07;3.42;;;;;;;17.13;34.53;94066.91;5016419;28;20350;-88
2022/03/28 03:41:41;;;;;;;4.32;3.35;;;;;;;17.13;34.58;94074.34;4994082;28;20037;-89
2022/03/28 03:44:06;;;;;;;4.60;2.70;;;;;;;17.16;34.99;94065.19;5013471;28;20034;-89
2022/03/28 03:46:32;;;;;;;10.10;7.43;;;;;;;17.14;34.74;94065.66;5011873;28;20037;-90
2022/03/28 03:48:58;;;;;;;8.07;5.45;;;;;;;17.13;34.67;94064.16;5011755;28;20029;-90
2022/03/28 03:51:23;;;;;;;9.43;6.00;;;;;;;17.14;34.71;94062.94;5010125;28;20518;-88
2022/03/28 03:53:49;;;;;;;6.90;4.18;;;;;;;17.14;34.90;94062.19;4992684;28;20047;-89
2022/03/28 03:56:14;;;;;;;4.65;3.33;;;;;;;17.14;34.50;94065.66;5025000;28;20404;-89
2022/03/28 03:58:40;;;;;;;4.45;3.53;;;;;;;17.13;34.42;94064.16;5010769;28;20033;-90
2022/03/28 04:01:05;;;;;;;11.20;7.95;;;;;;;17.02;34.76;94068.81;5008768;28;20484;-89
2022/03/28 04:03:33;;;;;;;13.13;8.95;;;;;;;16.90;35.35;94059.03;5025302;28;20037;-89
2022/03/28 04:05:58;;;;;;;18.10;8.90;;;;;;;16.86;34.98;94063.97;5027726;28;20558;-89
2022/03/28 04:08:24;;;;;;;18.05;9.27;;;;;;;16.90;35.08;94059.03;5030583;28;20037;-88
2022/03/28 04:10:49;;;;;;;12.65;9.38;;;;;;;16.89;34.88;94066.47;5013295;28;20032;-89
2022/03/28 04:13:16;;;;;;;17.98;9.32;;;;;;;16.91;34.95;94068.72;5028849;28;20385;-88
2022/03/28 04:15:41;;;;;;;11.63;9.73;;;;;;;16.90;35.07;94065.25;5012358;28;20048;-88
2022/03/28 04:18:06;;;;;;;16.63;11.18;;;;;;;16.90;35.03;94061.75;5012235;28;20029;-89
2022/03/28 04:20:32;;;;;;;19.67;10.23;;;;;;;16.92;34.67;94062.03;5014077;28;20029;-89
2022/03/28 04:22:57;;;;;;;23.40;9.82;;;;;;;16.91;35.42;94055.81;5032513;28;20037;-88
2022/03/28 04:25:23;;;;;;;22.30;9.07;;;;;;;16.91;34.64;94053.09;5031769;28;20041;-88
2022/03/28 04:27:48;;;;;;;25.65;10.38;;;;;;;16.98;34.61;94054.63;5032582;28;20033;-87
2022/03/28 04:30:14;;;;;;;26.38;12.02;;;;;;;16.96;34.89;94054.34;5014106;28;20068;-89
2022/03/28 04:32:39;;;;;;;31.88;17.73;;;;;;;16.96;34.65;94051.63;5032419;28;20032;-87
2022/03/28 04:35:05;;;;;;;64.53;21.33;;;;;;;17.01;35.17;94050.94;5033373;28;20029;-89
2022/03/28 04:37:39;;;;;;;129.07;21.67;;;;;;;17.05;35.27;94054.94;5011361;28;20042;-87
2022/03/28 04:40:06;;;;;;;47.60;13.98;;;;;;;17.10;35.70;94056.94;5031894;28;20152;-86
2022/03/28 04:42:31;;;;;;;61.58;15.68;;;;;;;17.16;34.80;94048.78;5013386;28;20034;-87
2022/03/28 04:44:57;;;;;;;31.75;12.02;;;;;;;17.18;34.93;94046.31;5015898;28;20044;-85
2022/03/28 04:47:22;;;;;;;47.88;19.70;;;;;;;17.20;34.78;94054.03;5046504;28;20049;-89
2022/03/28 04:49:48;;;;;;;25.65;12.50;;;;;;;17.14;34.78;94045.78;4997330;28;20810;-88
2022/03/28 04:52:13;;;;;;;39.95;13.77;;;;;;;17.17;34.67;94044.06;5027307;28;20571;-88
2022/03/28 04:54:39;;;;;;;49.08;13.48;;;;;;;17.14;34.96;94043.81;5014705;28;20443;-90
2022/03/28 04:57:04;;;;;;;61.83;14.20;;;;;;;17.10;34.82;94043.28;5032124;28;20096;-89
2022/03/28 04:59:30;;;;;;;40.08;10.52;;;;;;;17.13;35.18;94045.03;5030955;28;20036;-88
2022/03/28 05:01:56;;;;;;;36.33;12.02;;;;;;;17.07;34.38;94040.78;5028579;28;20091;-90
2022/03/28 05:04:22;;;;;;;50.92;14.02;;;;;;;16.89;35.07;94041.88;5031911;28;20048;-92
2022/03/28 05:06:47;;;;;;;64.53;18.23;;;;;;;16.86;34.99;94047.59;5032404;28;20041;-91
2022/03/28 05:09:13;;;;;;;34.03;14.77;;;;;;;16.66;35.11;94048.44;5031387;28;20045;-89
2022/03/28 05:11:38;;;;;;;33.85;14.13;;;;;;;16.62;35.46;94053.34;5034004;28;20144;-90
2022/03/28 05:14:04;;;;;;;49.65;16.30;;;;;;;16.57;35.42;94051.28;5028992;28;20033;-90
2022/03/28 05:16:29;;;;;;;58.13;17.35;;;;;;;16.55;35.26;94046.31;5012355;28;20273;-90
2022/03/28 05:18:55;;;;;;;51.83;16.85;;;;;;;16.40;35.79;94054.63;4996173;28;20048;-90
2022/03/28 05:21:20;;;;;;;37.03;15.88;;;;;;;16.30;36.15;94053.28;5011961;28;20073;-89
2022/03/28 05:23:46;;;;;;;42.47;15.73;;;;;;;16.26;36.15;94047.28;5018449;28;20043;-91
2022/03/28 05:26:11;;;;;;;43.47;17.00;;;;;;;16.20;36.35;94051.94;5015810;28;20271;-90
2022/03/28 05:28:36;;;;;;;38.80;16.30;;;;;;;16.20;36.60;94048.47;5027846;28;20451;-90
2022/03/28 05:31:02;;;;;;;45.72;17.05;;;;;;;16.20;36.65;94051.19;5028513;28;20399;-90
2022/03/28 05:33:27;;;;;;;42.83;16.85;;;;;;;16.19;36.95;94055.91;5006771;28;20035;-89
2022/03/28 05:35:54;;;;;;;56.65;19.08;;;;;;;16.15;37.60;94047.19;5014899;28;20044;-90
2022/03/28 05:38:19;;;;;;;74.35;25.98;;;;;;;16.11;37.77;94052.84;5016081;28;20538;-90
2022/03/28 05:40:45;;;;;;;47.83;20.27;;;;;;;16.13;38.05;94048.88;5012863;28;20112;-90
2022/03/28 05:43:10;;;;;;;41.13;19.30;;;;;;;16.15;38.46;94046.44;5012307;28;20133;-89
2022/03/28 05:45:36;;;;;;;45.83;18.73;;;;;;;16.13;38.62;94055.09;5009818;28;20029;-90
2022/03/28 05:48:02;;;;;;;43.45;19.65;;;;;;;16.13;38.31;94046.16;5030455;28;20765;-90
2022/03/28 05:50:27;;;;;;;33.63;18.77;;;;;;;16.11;38.67;94047.38;5028863;28;20049;-89
2022/03/28 05:52:54;;;;;;;55.00;23.95;;;;;;;16.09;38.42;94047.13;5012061;28;20033;-88
2022/03/28 05:55:20;;;;;;;69.65;29.05;;;;;;;16.09;38.92;94049.84;5012699;28;20060;-92
2022/03/28 05:57:45;;;;;;;90.70;29.75;;;;;;;16.11;39.02;94041.19;5005745;28;20322;-88
2022/03/28 06:00:13;;;;;;;55.72;24.08;;;;;;;16.15;39.48;94043.69;5019162;28;20044;-89
2022/03/28 06:02:39;;;;;;;61.97;24.27;;;;;;;16.11;39.79;94038.47;5032833;28;20033;-89
2022/03/28 06:05:06;;;;;;;53.00;23.67;;;;;;;16.07;39.50;94046.84;5028002;28;20048;-88
2022/03/28 06:07:32;;;;;;;39.80;20.90;;;;;;;16.02;39.61;94039.34;5015605;28;20112;-91
2022/03/28 06:09:57;;;;;;;39.35;18.20;;;;;;;16.00;39.75;94044.56;5016527;28;20041;-90
2022/03/28 06:12:23;;;;;;;40.40;18.80;;;;;;;16.05;39.83;94035.66;5029153;28;20492;-89
2022/03/28 06:14:49;;;;;;;41.60;18.52;;;;;;;16.06;40.57;94039.13;5015745;28;20043;-89
2022/03/28 06:17:24;;;;;;;34.10;17.20;;;;;;;16.09;40.71;94035.47;5033588;28;20033;-91
2022/03/28 06:19:50;;;;;;;34.15;17.02;;;;;;;16.05;40.53;94030.22;5009573;28;20109;-89
2022/03/28 06:22:15;;;;;;;26.33;16.00;;;;;;;16.06;40.50;94034.44;5030462;28;20088;-88
2022/03/28 06:24:43;;;;;;;24.30;15.18;;;;;;;16.11;40.50;94027.53;5019755;28;20032;-91
2022/03/28 06:27:08;;;;;;;26.67;15.40;;;;;;;16.11;40.34;94028.28;5079252;28;20509;-91
2022/03/28 06:29:34;;;;;;;37.22;15.27;;;;;;;16.15;40.20;94021.88;5051099;28;20077;-91
2022/03/28 06:32:00;;;;;;;28.17;15.15;;;;;;;16.19;40.26;94025.91;5033834;28;20082;-92
2022/03/28 06:34:26;;;;;;;43.67;17.00;;;;;;;16.24;40.21;94017.00;5052323;28;20032;-89
2022/03/28 06:36:51;;;;;;;40.60;16.50;;;;;;;16.28;40.21;94014.81;5034477;28;20052;-89
2022/03/28 06:39:17;;;;;;;66.22;22.25;;;;;;;16.33;40.01;94005.19;5047948;28;20658;-89
2022/03/28 06:41:42;;;;;;;91.28;24.95;;;;;;;16.42;39.60;94013.97;5055250;28;20089;-90
2022/03/28 06:44:11;;;;;;;78.75;22.55;;;;;;;16.49;39.64;94012.00;5039685;28;20044;-92
2022/03/28 06:46:37;;;;;;;93.85;24.02;;;;;;;16.50;39.48;94014.25;5027667;28;20698;-90
2022/03/28 06:49:03;;;;;;;99.72;25.10;;;;;;;16.44;40.12;94008.03;5022018;28;20077;-90
2022/03/28 06:51:28;;;;;;;124.50;28.30;;;;;;;16.47;39.95;94009.75;5066627;28;20101;-91
2022/03/28 06:53:54;;;;;;;109.88;28.92;;;;;;;16.50;40.03;94014.25;5074047;28;20037;-91
2022/03/28 06:56:20;;;;;;;96.60;27.73;;;;;;;16.56;39.98;94011.59;5062706;28;20036;-90
2022/03/28 06:58:46;;;;;;;90.82;25.38;;;;;;;16.61;39.98;94005.44;5047221;28;20063;-89
2022/03/28 07:01:12;;;;;;;117.85;30.08;;;;;;;16.65;39.48;94009.47;5049197;28;20119;-88
2022/03/28 07:03:37;;;;;;;101.15;29.70;;;;;;;16.72;38.87;94005.53;5037961;28;20414;-90
2022/03/28 07:06:03;;;;;;;124.82;32.28;;;;;;;16.72;38.78;94009.00;5038812;28;20647;-88
2022/03/28 07:08:29;;;;;;;104.53;29.58;;;;;;;16.76;39.23;94014.25;5025631;28;20040;-91
2022/03/28 07:10:55;;;;;;;85.88;26.90;;;;;;;16.78;38.62;94007.06;5038089;28;20054;-89
2022/03/28 07:13:22;;;;;;;74.13;27.17;;;;;;;16.83;38.75;94011.09;5040537;28;20078;-91
2022/03/28 07:15:48;;;;;;;76.60;27.15;;;;;;;16.85;38.84;94007.88;5041699;28;20087;-90
2022/03/28 07:18:13;;;;;;;79.38;26.98;;;;;;;16.90;38.23;94004.41;5031649;28;20396;-90
2022/03/28 07:20:39;;;;;;;58.42;22.60;;;;;;;16.91;38.24;94009.38;5031051;28;20048;-90
2022/03/28 07:23:05;;;;;;;57.50;24.02;;;;;;;16.93;38.04;94008.91;5021302;28;20541;-90
2022/03/28 07:25:30;;;;;;;48.90;20.10;;;;;;;16.96;38.13;94007.94;5033586;28;20040;-88
2022/03/28 07:27:56;;;;;;;58.80;20.27;;;;;;;16.97;38.19;94014.88;5019734;28;20064;-90
2022/03/28 07:30:21;;;;;;;63.45;21.08;;;;;;;17.01;38.06;94010.72;5037458;28;20041;-91
2022/03/28 07:32:50;;;;;;;56.95;19.77;;;;;;;17.02;37.62;94011.47;5011731;28;20463;-88
2022/03/28 07:35:17;;;;;;;41.85;17.58;;;;;;;17.04;38.40;94009.00;5012661;28;20046;-90
2022/03/28 07:37:43;;;;;;;39.90;18.25;;;;;;;17.06;38.23;94010.00;5042972;28;20049;-91
2022/03/28 07:40:09;;;;;;;46.83;18.92;;;;;;;17.10;37.87;94001.59;5013651;28;20123;-91
2022/03/28 07:42:35;;;;;;;47.20;19.13;;;;;;;17.14;37.76;94004.81;5022456;28;20104;-92
2022/03/28 07:45:01;;;;;;;50.15;19.27;;;;;;;17.12;37.69;94005.28;5013569;28;20064;-91
2022/03/28 07:47:28;;;;;;;50.22;17.98;;;;;;;17.12;37.93;93999.09;5016810;28;20037;-91
2022/03/28 07:49:54;;;;;;;45.15;19.60;;;;;;;17.15;37.53;94003.56;5012036;28;20029;-89
2022/03/28 07:52:20;;;;;;;46.55;18.15;;;;;;;17.17;37.83;93995.66;5027500;28;20102;-90
2022/03/28 07:54:47;;;;;;;35.28;19.10;;;;;;;17.18;37.86;93996.41;5018301;28;20068;-90
2022/03/28 07:57:14;;;;;;;48.60;26.27;;;;;;;17.21;37.64;93993.44;5010687;28;20033;-90
2022/03/28 07:59:43;;;;;;;58.45;29.42;;;;;;;17.25;37.54;93998.69;4996405;28;20033;-89
2022/03/28 08:02:09;;;;;;;53.95;28.88;;;;;;;17.24;37.58;93997.94;5027813;28;20053;-90
2022/03/28 08:04:36;;;;;;;72.78;38.75;;;;;;;17.25;37.51;93995.94;5008702;28;20049;-89
2022/03/28 08:07:08;;;;;;;72.93;40.92;;;;;;;17.26;37.25;93994.72;5027086;28;20061;-91
2022/03/28 08:09:38;;;;;;;85.80;43.92;;;;;;;17.29;37.19;93999.94;5030904;28;20037;-89
2022/03/28 08:12:04;;;;;;;79.22;43.67;;;;;;;17.27;37.46;93988.75;5004295;28;20069;-90
2022/03/28 08:14:29;;;;;;;99.00;50.28;;;;;;;17.29;37.75;93993.72;5018605;28;20045;-93
2022/03/28 08:16:55;;;;;;;77.88;39.67;;;;;;;17.30;37.22;93987.03;5009073;28;20044;-90
2022/03/28 08:19:21;;;;;;;84.15;46.15;;;;;;;17.36;37.38;93985.06;5003833;28;20037;-90
2022/03/28 08:21:47;;;;;;;73.22;39.40;;;;;;;17.35;37.58;93989.78;5002190;28;20052;-90
2022/03/28 08:24:12;;;;;;;80.40;44.38;;;;;;;17.36;37.13;93990.53;5004802;28;20049;-89
2022/03/28 08:26:38;;;;;;;104.05;52.25;;;;;;;17.38;37.40;93983.34;5032433;28;20041;-90
2022/03/28 08:29:04;;;;;;;123.13;53.05;;;;;;;17.34;37.39;93971.88;5033256;28;20037;-92
2022/03/28 08:31:30;;;;;;;125.53;50.08;;;;;;;17.28;37.55;93975.84;5019758;28;20049;-92
2022/03/28 08:33:56;;;;;;;114.72;45.55;;;;;;;17.32;38.06;93984.56;5030552;28;20085;-92
2022/03/28 08:36:22;;;;;;;111.35;45.63;;;;;;;17.32;37.89;93977.09;5011858;28;20406;-90
2022/03/28 08:38:47;;;;;;;100.68;40.05;;;;;;;17.33;37.89;93975.09;5026455;28;20044;-91
2022/03/28 08:41:14;;;;;;;129.55;44.55;;;;;;;17.35;38.10;93989.03;5015316;28;20519;-90
2022/03/28 08:43:40;;;;;;;170.90;50.17;;;;;;;17.36;37.96;93980.34;5016413;28;20353;-91
2022/03/28 08:46:05;;;;;;;131.00;42.45;;;;;;;17.40;37.69;93975.41;5008779;28;20041;-91
2022/03/28 08:48:33;;;;;;;152.02;49.58;;;;;;;17.39;37.56;93982.09;4990476;28;20061;-92
2022/03/28 08:50:59;;;;;;;280.17;75.13;;;;;;;17.34;37.80;93979.31;4992685;28;20038;-90
2022/03/28 08:53:24;;;;;;;213.38;80.63;;;;;;;17.37;37.99;93978.34;4996297;28;20082;-92
2022/03/28 08:55:50;;;;;;;184.02;67.50;;;;;;;17.38;38.08;93975.13;4980313;28;20064;-92
2022/03/28 08:58:15;;;;;;;172.30;63.70;;;;;;;17.38;37.96;93972.41;4996445;28;20108;-92
2022/03/28 09:00:42;;;;;;;197.32;71.63;;;;;;;17.42;37.51;93983.84;4979784;28;20045;-91
2022/03/28 09:03:07;;;;;;;148.07;63.70;;;;;;;17.44;37.99;93977.91;5002870;28;20037;-90
2022/03/28 09:05:38;;;;;;;185.90;77.32;;;;;;;17.47;37.59;93979.66;4976049;28;20034;-90
2022/03/28 09:08:04;;;;;;;172.38;73.97;;;;;;;17.48;37.71;93967.47;4992171;28;20596;-92
2022/03/28 09:10:33;;;;;;;193.45;71.13;;;;;;;17.50;37.50;93969.72;4986751;28;20041;-91
2022/03/28 09:13:06;;;;;;;180.45;69.72;;;;;;;17.47;37.96;93964.00;4976442;28;20744;-87
2022/03/28 09:15:51;;;;;;;179.70;75.45;;;;;;;17.48;38.02;93973.69;4964809;28;20050;-88
2022/03/28 09:18:26;;;;;;;207.90;71.35;;;;;;;17.46;37.57;93962.50;5032836;28;20040;-90
2022/03/28 09:20:54;;;;;;;175.68;69.03;;;;;;;17.47;37.36;93968.72;5026036;28;20040;-89
2022/03/28 09:23:34;;;;;;;148.20;62.13;;;;;;;17.43;37.74;93958.00;5041219;28;20049;-90
2022/03/28 09:26:09;;;;;;;90.22;43.05;;;;;;;17.41;38.52;93957.00;5050114;28;20135;-90
2022/03/28 09:28:38;;;;;;;93.28;37.58;;;;;;;17.42;38.61;93955.78;5008844;28;20048;-91
2022/03/28 09:31:26;;;;;;;88.82;37.47;;;;;;;17.41;38.61;93957.00;5043723;28;20076;-92
2022/03/28 09:33:56;;;;;;;70.78;36.25;;;;;;;17.38;38.74;93947.81;5020457;28;20037;-91
2022/03/28 09:36:41;;;;;;;70.47;32.85;;;;;;;17.39;38.39;93946.56;5030259;28;20049;-86
2022/03/28 09:39:12;;;;;;;96.18;35.08;;;;;;;17.41;38.73;93943.34;5032942;28;20038;-91
2022/03/28 09:41:38;;;;;;;84.60;34.58;;;;;;;17.39;38.45;93943.09;4999408;28;20034;-93
2022/03/28 09:44:04;;;;;;;72.15;29.50;;;;;;;17.40;38.51;93945.34;5014891;28;20500;-91
2022/03/28 09:46:32;;;;;;;160.68;40.10;;;;;;;17.44;38.84;93948.59;5037026;28;20060;-91
2022/03/28 09:48:59;;;;;;;83.65;34.60;;;;;;;17.46;38.68;93948.84;5021420;28;20033;-91
2022/03/28 09:51:29;;;;;;;146.20;47.58;;;;;;;17.49;37.94;93947.13;5019507;28;20407;-91
2022/03/28 09:53:58;;;;;;;189.93;73.60;;;;;;;17.50;37.98;93950.59;5021308;28;20029;-92
2022/03/28 09:56:24;;;;;;;169.70;57.35;;;;;;;17.49;37.92;93944.38;5020274;28;20102;-91
2022/03/28 09:59:01;;;;;;;240.93;76.00;;;;;;;17.51;38.15;93941.16;5010968;28;20115;-91
2022/03/28 10:01:32;;;;;;;248.10;75.55;;;;;;;17.51;38.16;93933.69;5005937;28;20048;-91
2022/03/28 10:04:02;;;;;;;;;;;;;;;17.53;38.03;93931.22;5012533;28;20041;-90
2022/03/28 10:06:30;;;;;;;169.32;60.28;;;;;;;17.54;38.04;93931.97;5032762;28;19927;-90
2022/03/28 10:08:59;;;;;;;158.27;54.22;;;;;;;17.55;37.99;93928.72;5042926;28;20102;-90
2022/03/28 10:11:26;;;;;;;143.60;52.15;;;;;;;17.54;38.00;93929.97;5040831;28;20032;-88
2022/03/28 10:13:52;;;;;;;134.20;48.55;;;;;;;17.56;37.94;93930.22;5027303;28;20475;-93
2022/03/28 10:16:17;;;;;;;112.57;45.35;;;;;;;17.56;38.52;93918.53;5003095;28;20038;-89
2022/03/28 10:18:45;;;;;;;103.15;43.72;;;;;;;17.60;38.44;93914.34;5006364;28;20037;-87
2022/03/28 10:21:25;;;;;;;104.35;44.30;;;;;;;17.60;38.12;93908.88;5029305;28;20097;-88
2022/03/28 10:24:02;;;;;;;84.40;37.95;;;;;;;17.61;38.08;93909.59;5000943;28;20125;-91
2022/03/28 10:26:30;;;;;;;84.57;37.88;;;;;;;17.64;38.17;93905.91;5015909;28;20052;-89
2022/03/28 10:29:09;;;;;;;87.93;38.03;;;;;;;17.64;38.27;93903.16;4996905;28;20049;-88
2022/03/28 10:31:54;;;;;;;104.88;37.40;;;;;;;17.64;37.69;93897.69;5011248;28;20484;-89
2022/03/28 10:34:48;;;;;;;75.57;34.30;;;;;;;17.66;38.32;93881.56;5014333;28;20038;-90
2022/03/28 10:37:38;;;;;;;61.03;31.50;;;;;;;17.68;38.13;93890.78;5014790;28;20049;-89
2022/03/28 10:40:16;;;;;;;67.30;31.43;;;;;;;17.70;37.72;93890.28;5035428;28;20046;-86
2022/03/28 10:42:46;;;;;;;64.30;31.17;;;;;;;17.74;38.04;93888.06;5029057;28;20449;-90
2022/03/28 10:45:18;;;;;;;55.15;30.50;;;;;;;17.74;38.55;93877.88;5016982;28;20037;-90
2022/03/28 10:47:44;;;;;;;50.70;28.63;;;;;;;17.78;38.19;93883.06;5035089;28;20041;-90
2022/03/28 10:50:12;;;;;;;55.08;25.40;;;;;;;17.76;37.64;93866.41;5026772;28;20037;-90
2022/03/28 10:52:58;;;;;;;53.20;27.08;;;;;;;17.77;37.31;93865.16;4998137;28;20103;-91
2022/03/28 10:55:41;;;;;;;68.70;28.95;;;;;;;17.74;37.45;93866.19;5017329;28;20060;-92
2022/03/28 10:58:26;;;;;;;55.20;26.15;;;;;;;17.69;37.59;93858.72;4998138;28;20083;-93
2022/03/28 11:01:13;;;;;;;59.63;26.88;;;;;;;17.71;37.26;93854.25;5007416;28;20037;-91
2022/03/28 11:03:45;;;;;;;103.53;34.40;;;;;;;17.71;37.00;93854.25;5047758;28;20033;-91
2022/03/28 11:06:10;;;;;;;100.82;39.17;;;;;;;17.70;37.04;93847.28;5028307;28;20353;-91
2022/03/28 11:08:40;;;;;;;101.72;38.90;;;;;;;17.67;37.46;93842.06;5011504;28;20069;-91
2022/03/28 11:11:19;;;;;;;128.15;45.75;;;;;;;17.64;37.56;93832.06;5014815;28;20074;-91
2022/03/28 11:14:06;;;;;;;87.88;29.30;;;;;;;17.63;37.43;93836.06;5016407;28;20037;-91
2022/03/28 11:16:54;;;;;;;61.80;26.88;;;;;;;17.64;37.90;93832.06;5016118;28;20352;-91
2022/03/28 11:19:32;;;;;;;47.55;25.75;;;;;;;17.62;38.04;93824.38;5003229;28;20045;-92
2022/03/28 11:22:04;;;;;;;40.33;22.75;;;;;;;17.64;38.28;93823.88;5046121;28;20479;-91